sensor_id;sensor_type;location;lat;lon;timestamp;P1;durP1;ratioP1;P2;durP2;ratioP2
18659;SDS011;9459;50.254;19.014;2023-08-30T00:01:04;24.67;;;17.10;;
18659;SDS011;9459;50.254;19.014;2023-08-30T00:03:36;22.70;;;16.08;;
18659;SDS011;9459;50.254;19.014;2023-08-30T00:06:05;19.17;;;13.95;;
18659;SDS011;9459;50.254;19.014;2023-08-30T00:08:34;22.02;;;14.90;;
18659;SDS011;9459;50.254;19.014;2023-08-30T00:11:02;20.08;;;14.27;;
18659;SDS011;9459;50.254;19.014;2023-08-30T00:13:32;18.67;;;12.90;;
18659;SDS011;9459;50.254;19.014;2023-08-30T00:16:00;16.50;;;12.70;;
18659;SDS011;9459;50.254;19.014;2023-08-30T00:18:30;16.83;;;12.18;;
18659;SDS011;9459;50.254;19.014;2023-08-30T00:21:00;14.20;;;11.40;;
18659;SDS011;9459;50.254;19.014;2023-08-30T00:23:28;13.60;;;10.70;;
18659;SDS011;9459;50.254;19.014;2023-08-30T00:25:57;12.23;;;9.77;;
18659;SDS011;9459;50.254;19.014;2023-08-30T00:28:25;11.20;;;8.95;;
18659;SDS011;9459;50.254;19.014;2023-08-30T00:30:54;11.13;;;8.77;;
18659;SDS011;9459;50.254;19.014;2023-08-30T00:33:23;11.98;;;8.60;;
18659;SDS011;9459;50.254;19.014;2023-08-30T00:35:57;10.52;;;7.97;;
18659;SDS011;9459;50.254;19.014;2023-08-30T00:38:27;9.77;;;7.35;;
18659;SDS011;9459;50.254;19.014;2023-08-30T00:40:56;8.20;;;6.97;;
18659;SDS011;9459;50.254;19.014;2023-08-30T00:43:24;8.55;;;6.65;;
18659;SDS011;9459;50.254;19.014;2023-08-30T00:45:53;6.70;;;5.70;;
18659;SDS011;9459;50.254;19.014;2023-08-30T00:48:21;8.02;;;5.82;;
18659;SDS011;9459;50.254;19.014;2023-08-30T00:50:50;8.55;;;6.75;;
18659;SDS011;9459;50.254;19.014;2023-08-30T00:53:18;6.88;;;6.00;;
18659;SDS011;9459;50.254;19.014;2023-08-30T00:55:48;7.30;;;5.97;;
18659;SDS011;9459;50.254;19.014;2023-08-30T00:58:17;7.65;;;5.57;;
18659;SDS011;9459;50.254;19.014;2023-08-30T01:00:45;5.93;;;4.97;;
18659;SDS011;9459;50.254;19.014;2023-08-30T01:03:15;6.60;;;4.93;;
18659;SDS011;9459;50.254;19.014;2023-08-30T01:05:44;5.97;;;4.75;;
18659;SDS011;9459;50.254;19.014;2023-08-30T01:08:12;6.60;;;5.40;;
18659;SDS011;9459;50.254;19.014;2023-08-30T01:10:53;6.35;;;5.55;;
18659;SDS011;9459;50.254;19.014;2023-08-30T01:13:27;6.53;;;4.68;;
18659;SDS011;9459;50.254;19.014;2023-08-30T01:15:57;6.00;;;5.40;;
18659;SDS011;9459;50.254;19.014;2023-08-30T01:18:26;6.43;;;5.75;;
18659;SDS011;9459;50.254;19.014;2023-08-30T01:20:55;8.00;;;7.20;;
18659;SDS011;9459;50.254;19.014;2023-08-30T01:23:26;9.43;;;8.48;;
18659;SDS011;9459;50.254;19.014;2023-08-30T01:26:03;9.95;;;8.95;;
18659;SDS011;9459;50.254;19.014;2023-08-30T01:28:37;9.43;;;8.52;;
18659;SDS011;9459;50.254;19.014;2023-08-30T01:31:07;10.90;;;9.32;;
18659;SDS011;9459;50.254;19.014;2023-08-30T01:33:36;12.20;;;10.88;;
18659;SDS011;9459;50.254;19.014;2023-08-30T01:36:05;11.27;;;9.68;;
18659;SDS011;9459;50.254;19.014;2023-08-30T01:38:34;9.90;;;8.93;;
18659;SDS011;9459;50.254;19.014;2023-08-30T01:41:02;10.32;;;9.32;;
18659;SDS011;9459;50.254;19.014;2023-08-30T01:43:32;10.55;;;9.45;;
18659;SDS011;9459;50.254;19.014;2023-08-30T01:46:02;11.13;;;9.90;;
18659;SDS011;9459;50.254;19.014;2023-08-30T01:48:31;12.07;;;10.57;;
18659;SDS011;9459;50.254;19.014;2023-08-30T01:51:01;16.25;;;13.25;;
18659;SDS011;9459;50.254;19.014;2023-08-30T01:53:30;12.35;;;10.73;;
18659;SDS011;9459;50.254;19.014;2023-08-30T01:56:00;11.80;;;8.82;;
18659;SDS011;9459;50.254;19.014;2023-08-30T01:58:28;10.35;;;8.82;;
18659;SDS011;9459;50.254;19.014;2023-08-30T02:00:56;11.52;;;9.57;;
18659;SDS011;9459;50.254;19.014;2023-08-30T02:03:26;11.65;;;8.48;;
18659;SDS011;9459;50.254;19.014;2023-08-30T02:05:57;11.85;;;8.45;;
18659;SDS011;9459;50.254;19.014;2023-08-30T02:08:34;9.68;;;8.15;;
18659;SDS011;9459;50.254;19.014;2023-08-30T02:11:06;7.22;;;6.40;;
18659;SDS011;9459;50.254;19.014;2023-08-30T02:13:36;8.75;;;7.55;;
18659;SDS011;9459;50.254;19.014;2023-08-30T02:16:05;12.35;;;9.40;;
18659;SDS011;9459;50.254;19.014;2023-08-30T02:18:38;10.23;;;8.30;;
18659;SDS011;9459;50.254;19.014;2023-08-30T02:21:06;12.40;;;10.80;;
18659;SDS011;9459;50.254;19.014;2023-08-30T02:23:35;11.32;;;8.45;;
18659;SDS011;9459;50.254;19.014;2023-08-30T02:26:03;9.40;;;8.40;;
18659;SDS011;9459;50.254;19.014;2023-08-30T02:28:32;9.88;;;7.95;;
18659;SDS011;9459;50.254;19.014;2023-08-30T02:31:01;9.63;;;7.38;;
18659;SDS011;9459;50.254;19.014;2023-08-30T02:33:30;7.68;;;6.85;;
18659;SDS011;9459;50.254;19.014;2023-08-30T02:35:59;8.05;;;6.63;;
18659;SDS011;9459;50.254;19.014;2023-08-30T02:38:28;6.90;;;6.18;;
18659;SDS011;9459;50.254;19.014;2023-08-30T02:40:56;7.32;;;5.45;;
18659;SDS011;9459;50.254;19.014;2023-08-30T02:43:25;6.95;;;5.88;;
18659;SDS011;9459;50.254;19.014;2023-08-30T02:45:53;7.78;;;6.97;;
18659;SDS011;9459;50.254;19.014;2023-08-30T02:48:22;8.20;;;7.40;;
18659;SDS011;9459;50.254;19.014;2023-08-30T02:50:51;8.93;;;8.02;;
18659;SDS011;9459;50.254;19.014;2023-08-30T02:53:21;10.05;;;9.05;;
18659;SDS011;9459;50.254;19.014;2023-08-30T02:55:49;10.77;;;9.68;;
18659;SDS011;9459;50.254;19.014;2023-08-30T02:58:17;12.10;;;10.15;;
18659;SDS011;9459;50.254;19.014;2023-08-30T03:00:46;10.45;;;9.45;;
18659;SDS011;9459;50.254;19.014;2023-08-30T03:03:14;14.77;;;13.13;;
18659;SDS011;9459;50.254;19.014;2023-08-30T03:05:43;18.27;;;16.15;;
18659;SDS011;9459;50.254;19.014;2023-08-30T03:08:12;15.25;;;13.65;;
18659;SDS011;9459;50.254;19.014;2023-08-30T03:10:42;19.85;;;16.98;;
18659;SDS011;9459;50.254;19.014;2023-08-30T03:13:10;16.83;;;13.75;;
18659;SDS011;9459;50.254;19.014;2023-08-30T03:15:39;15.18;;;13.68;;
18659;SDS011;9459;50.254;19.014;2023-08-30T03:18:07;14.60;;;13.13;;
18659;SDS011;9459;50.254;19.014;2023-08-30T03:20:36;19.77;;;17.35;;
18659;SDS011;9459;50.254;19.014;2023-08-30T03:23:05;14.57;;;12.95;;
18659;SDS011;9459;50.254;19.014;2023-08-30T03:25:33;18.73;;;16.73;;
18659;SDS011;9459;50.254;19.014;2023-08-30T03:28:04;16.73;;;13.32;;
18659;SDS011;9459;50.254;19.014;2023-08-30T03:30:33;22.00;;;17.77;;
18659;SDS011;9459;50.254;19.014;2023-08-30T03:33:02;20.65;;;16.88;;
18659;SDS011;9459;50.254;19.014;2023-08-30T03:35:33;24.65;;;20.20;;
18659;SDS011;9459;50.254;19.014;2023-08-30T03:38:02;17.90;;;16.08;;
18659;SDS011;9459;50.254;19.014;2023-08-30T03:40:30;19.67;;;17.38;;
18659;SDS011;9459;50.254;19.014;2023-08-30T03:42:59;18.17;;;15.98;;
18659;SDS011;9459;50.254;19.014;2023-08-30T03:45:29;11.88;;;10.63;;
18659;SDS011;9459;50.254;19.014;2023-08-30T03:47:57;10.43;;;8.48;;
18659;SDS011;9459;50.254;19.014;2023-08-30T03:50:25;9.02;;;7.88;;
18659;SDS011;9459;50.254;19.014;2023-08-30T03:52:54;8.88;;;7.97;;
18659;SDS011;9459;50.254;19.014;2023-08-30T03:55:22;9.95;;;7.60;;
18659;SDS011;9459;50.254;19.014;2023-08-30T03:57:51;13.88;;;10.52;;
18659;SDS011;9459;50.254;19.014;2023-08-30T04:00:19;12.13;;;8.95;;
18659;SDS011;9459;50.254;19.014;2023-08-30T04:05:20;11.48;;;9.85;;
18659;SDS011;9459;50.254;19.014;2023-08-30T04:07:49;14.18;;;11.73;;
18659;SDS011;9459;50.254;19.014;2023-08-30T04:10:17;13.85;;;10.90;;
18659;SDS011;9459;50.254;19.014;2023-08-30T04:12:47;21.57;;;17.90;;
18659;SDS011;9459;50.254;19.014;2023-08-30T04:15:16;17.58;;;14.60;;
18659;SDS011;9459;50.254;19.014;2023-08-30T04:17:44;14.63;;;11.57;;
18659;SDS011;9459;50.254;19.014;2023-08-30T04:20:14;15.00;;;11.55;;
18659;SDS011;9459;50.254;19.014;2023-08-30T04:22:43;14.73;;;10.75;;
18659;SDS011;9459;50.254;19.014;2023-08-30T04:25:11;15.20;;;10.60;;
18659;SDS011;9459;50.254;19.014;2023-08-30T04:27:40;17.08;;;12.75;;
18659;SDS011;9459;50.254;19.014;2023-08-30T04:30:09;20.75;;;14.93;;
18659;SDS011;9459;50.254;19.014;2023-08-30T04:32:38;15.13;;;11.13;;
18659;SDS011;9459;50.254;19.014;2023-08-30T04:35:07;16.60;;;12.10;;
18659;SDS011;9459;50.254;19.014;2023-08-30T04:37:39;16.08;;;11.50;;
18659;SDS011;9459;50.254;19.014;2023-08-30T04:40:10;15.10;;;10.93;;
18659;SDS011;9459;50.254;19.014;2023-08-30T04:42:39;20.05;;;16.63;;
18659;SDS011;9459;50.254;19.014;2023-08-30T04:45:08;16.13;;;12.98;;
18659;SDS011;9459;50.254;19.014;2023-08-30T04:47:38;13.63;;;11.35;;
18659;SDS011;9459;50.254;19.014;2023-08-30T04:50:06;17.23;;;13.18;;
18659;SDS011;9459;50.254;19.014;2023-08-30T04:52:35;20.63;;;16.08;;
18659;SDS011;9459;50.254;19.014;2023-08-30T04:55:06;23.08;;;16.55;;
18659;SDS011;9459;50.254;19.014;2023-08-30T04:57:35;19.45;;;13.57;;
18659;SDS011;9459;50.254;19.014;2023-08-30T05:00:04;15.13;;;11.73;;
18659;SDS011;9459;50.254;19.014;2023-08-30T05:02:34;17.67;;;12.20;;
18659;SDS011;9459;50.254;19.014;2023-08-30T05:05:03;17.50;;;12.25;;
18659;SDS011;9459;50.254;19.014;2023-08-30T05:07:32;20.73;;;14.35;;
18659;SDS011;9459;50.254;19.014;2023-08-30T05:10:00;22.25;;;14.65;;
18659;SDS011;9459;50.254;19.014;2023-08-30T05:12:32;20.50;;;14.23;;
18659;SDS011;9459;50.254;19.014;2023-08-30T05:15:01;18.88;;;13.48;;
18659;SDS011;9459;50.254;19.014;2023-08-30T05:17:31;25.90;;;16.45;;
18659;SDS011;9459;50.254;19.014;2023-08-30T05:20:00;25.67;;;17.27;;
18659;SDS011;9459;50.254;19.014;2023-08-30T05:22:30;30.80;;;20.83;;
18659;SDS011;9459;50.254;19.014;2023-08-30T05:24:58;31.30;;;19.52;;
18659;SDS011;9459;50.254;19.014;2023-08-30T05:27:27;21.80;;;14.68;;
18659;SDS011;9459;50.254;19.014;2023-08-30T05:29:57;26.27;;;16.30;;
18659;SDS011;9459;50.254;19.014;2023-08-30T05:32:26;24.00;;;14.98;;
18659;SDS011;9459;50.254;19.014;2023-08-30T05:34:55;18.33;;;13.20;;
18659;SDS011;9459;50.254;19.014;2023-08-30T05:37:24;19.70;;;13.43;;
18659;SDS011;9459;50.254;19.014;2023-08-30T05:39:52;17.08;;;12.77;;
18659;SDS011;9459;50.254;19.014;2023-08-30T05:42:20;19.70;;;12.65;;
18659;SDS011;9459;50.254;19.014;2023-08-30T05:44:49;18.65;;;13.15;;
18659;SDS011;9459;50.254;19.014;2023-08-30T05:47:19;16.70;;;12.73;;
18659;SDS011;9459;50.254;19.014;2023-08-30T05:49:48;18.13;;;12.80;;
18659;SDS011;9459;50.254;19.014;2023-08-30T05:52:17;18.52;;;11.43;;
18659;SDS011;9459;50.254;19.014;2023-08-30T05:54:45;13.80;;;10.05;;
18659;SDS011;9459;50.254;19.014;2023-08-30T05:57:14;16.13;;;9.30;;
18659;SDS011;9459;50.254;19.014;2023-08-30T05:59:42;11.32;;;8.98;;
18659;SDS011;9459;50.254;19.014;2023-08-30T06:02:11;14.15;;;10.38;;
18659;SDS011;9459;50.254;19.014;2023-08-30T06:04:41;13.05;;;9.10;;
18659;SDS011;9459;50.254;19.014;2023-08-30T06:07:09;11.48;;;9.65;;
18659;SDS011;9459;50.254;19.014;2023-08-30T06:09:38;13.88;;;10.20;;
18659;SDS011;9459;50.254;19.014;2023-08-30T06:12:07;14.57;;;12.18;;
18659;SDS011;9459;50.254;19.014;2023-08-30T06:14:36;19.63;;;14.10;;
18659;SDS011;9459;50.254;19.014;2023-08-30T06:17:05;13.75;;;11.00;;
18659;SDS011;9459;50.254;19.014;2023-08-30T06:19:33;16.52;;;12.23;;
18659;SDS011;9459;50.254;19.014;2023-08-30T06:22:03;18.15;;;13.00;;
18659;SDS011;9459;50.254;19.014;2023-08-30T06:24:32;17.50;;;12.43;;
18659;SDS011;9459;50.254;19.014;2023-08-30T06:27:01;16.98;;;12.65;;
18659;SDS011;9459;50.254;19.014;2023-08-30T06:29:29;16.35;;;11.38;;
18659;SDS011;9459;50.254;19.014;2023-08-30T06:31:58;13.27;;;10.65;;
18659;SDS011;9459;50.254;19.014;2023-08-30T06:34:26;14.65;;;10.30;;
18659;SDS011;9459;50.254;19.014;2023-08-30T06:36:55;11.80;;;9.77;;
18659;SDS011;9459;50.254;19.014;2023-08-30T06:39:24;13.73;;;10.50;;
18659;SDS011;9459;50.254;19.014;2023-08-30T06:41:53;15.73;;;11.63;;
18659;SDS011;9459;50.254;19.014;2023-08-30T06:44:21;14.23;;;11.52;;
18659;SDS011;9459;50.254;19.014;2023-08-30T06:46:50;13.18;;;10.98;;
18659;SDS011;9459;50.254;19.014;2023-08-30T06:49:18;17.25;;;12.50;;
18659;SDS011;9459;50.254;19.014;2023-08-30T06:51:47;21.65;;;14.07;;
18659;SDS011;9459;50.254;19.014;2023-08-30T06:54:15;20.50;;;13.65;;
18659;SDS011;9459;50.254;19.014;2023-08-30T06:56:56;20.50;;;12.75;;
18659;SDS011;9459;50.254;19.014;2023-08-30T06:59:25;17.07;;;11.97;;
18659;SDS011;9459;50.254;19.014;2023-08-30T07:01:54;15.80;;;11.00;;
18659;SDS011;9459;50.254;19.014;2023-08-30T07:04:22;15.35;;;10.18;;
18659;SDS011;9459;50.254;19.014;2023-08-30T07:06:51;15.15;;;10.43;;
18659;SDS011;9459;50.254;19.014;2023-08-30T07:09:19;14.93;;;10.48;;
18659;SDS011;9459;50.254;19.014;2023-08-30T07:11:50;12.07;;;8.70;;
18659;SDS011;9459;50.254;19.014;2023-08-30T07:14:19;13.23;;;9.20;;
18659;SDS011;9459;50.254;19.014;2023-08-30T07:16:48;14.00;;;9.63;;
18659;SDS011;9459;50.254;19.014;2023-08-30T07:19:17;13.00;;;9.50;;
18659;SDS011;9459;50.254;19.014;2023-08-30T07:21:45;13.75;;;9.38;;
18659;SDS011;9459;50.254;19.014;2023-08-30T07:24:14;10.52;;;7.18;;
18659;SDS011;9459;50.254;19.014;2023-08-30T07:26:43;10.10;;;6.45;;
18659;SDS011;9459;50.254;19.014;2023-08-30T07:29:13;11.07;;;6.32;;
18659;SDS011;9459;50.254;19.014;2023-08-30T07:31:42;9.45;;;6.43;;
18659;SDS011;9459;50.254;19.014;2023-08-30T07:34:10;7.28;;;6.03;;
18659;SDS011;9459;50.254;19.014;2023-08-30T07:36:39;5.90;;;4.50;;
18659;SDS011;9459;50.254;19.014;2023-08-30T07:39:13;7.95;;;5.95;;
18659;SDS011;9459;50.254;19.014;2023-08-30T07:41:42;7.22;;;5.78;;
18659;SDS011;9459;50.254;19.014;2023-08-30T07:44:11;11.98;;;7.45;;
18659;SDS011;9459;50.254;19.014;2023-08-30T07:46:40;8.40;;;6.78;;
18659;SDS011;9459;50.254;19.014;2023-08-30T07:49:09;8.93;;;6.57;;
18659;SDS011;9459;50.254;19.014;2023-08-30T07:51:37;9.63;;;6.85;;
18659;SDS011;9459;50.254;19.014;2023-08-30T07:54:06;8.95;;;7.40;;
18659;SDS011;9459;50.254;19.014;2023-08-30T07:56:34;9.00;;;7.18;;
18659;SDS011;9459;50.254;19.014;2023-08-30T07:59:03;8.10;;;7.20;;
18659;SDS011;9459;50.254;19.014;2023-08-30T08:01:31;9.68;;;7.15;;
18659;SDS011;9459;50.254;19.014;2023-08-30T08:04:01;8.48;;;6.47;;
18659;SDS011;9459;50.254;19.014;2023-08-30T08:06:33;8.65;;;6.38;;
18659;SDS011;9459;50.254;19.014;2023-08-30T08:09:03;9.70;;;6.40;;
18659;SDS011;9459;50.254;19.014;2023-08-30T08:11:34;6.90;;;5.70;;
18659;SDS011;9459;50.254;19.014;2023-08-30T08:14:03;6.10;;;5.38;;
18659;SDS011;9459;50.254;19.014;2023-08-30T08:16:32;6.05;;;5.18;;
18659;SDS011;9459;50.254;19.014;2023-08-30T08:19:03;5.57;;;4.53;;
18659;SDS011;9459;50.254;19.014;2023-08-30T08:21:32;5.90;;;4.68;;
18659;SDS011;9459;50.254;19.014;2023-08-30T08:24:00;7.88;;;4.28;;
18659;SDS011;9459;50.254;19.014;2023-08-30T08:26:29;4.82;;;4.22;;
18659;SDS011;9459;50.254;19.014;2023-08-30T08:28:57;7.55;;;4.63;;
18659;SDS011;9459;50.254;19.014;2023-08-30T08:31:27;5.95;;;3.80;;
18659;SDS011;9459;50.254;19.014;2023-08-30T08:34:06;3.85;;;3.55;;
18659;SDS011;9459;50.254;19.014;2023-08-30T08:36:37;4.63;;;3.60;;
18659;SDS011;9459;50.254;19.014;2023-08-30T08:39:05;3.95;;;3.40;;
18659;SDS011;9459;50.254;19.014;2023-08-30T08:41:35;4.05;;;3.20;;
18659;SDS011;9459;50.254;19.014;2023-08-30T08:44:07;3.08;;;2.47;;
18659;SDS011;9459;50.254;19.014;2023-08-30T08:46:36;2.45;;;2.25;;
18659;SDS011;9459;50.254;19.014;2023-08-30T08:49:09;3.83;;;2.42;;
18659;SDS011;9459;50.254;19.014;2023-08-30T08:51:41;3.40;;;1.88;;
18659;SDS011;9459;50.254;19.014;2023-08-30T08:54:10;4.60;;;2.13;;
18659;SDS011;9459;50.254;19.014;2023-08-30T08:56:39;2.33;;;1.70;;
18659;SDS011;9459;50.254;19.014;2023-08-30T08:59:08;4.85;;;2.20;;
18659;SDS011;9459;50.254;19.014;2023-08-30T09:01:36;3.67;;;2.05;;
18659;SDS011;9459;50.254;19.014;2023-08-30T09:04:08;6.60;;;2.33;;
18659;SDS011;9459;50.254;19.014;2023-08-30T09:06:38;5.93;;;2.65;;
18659;SDS011;9459;50.254;19.014;2023-08-30T09:09:08;4.53;;;2.63;;
18659;SDS011;9459;50.254;19.014;2023-08-30T09:11:36;6.80;;;2.95;;
18659;SDS011;9459;50.254;19.014;2023-08-30T09:14:17;11.82;;;3.85;;
18659;SDS011;9459;50.254;19.014;2023-08-30T09:16:53;7.95;;;3.72;;
18659;SDS011;9459;50.254;19.014;2023-08-30T09:19:24;3.92;;;2.92;;
18659;SDS011;9459;50.254;19.014;2023-08-30T09:21:53;6.55;;;2.78;;
18659;SDS011;9459;50.254;19.014;2023-08-30T09:24:21;4.22;;;2.28;;
18659;SDS011;9459;50.254;19.014;2023-08-30T09:26:51;3.00;;;2.08;;
18659;SDS011;9459;50.254;19.014;2023-08-30T09:29:20;5.30;;;2.58;;
18659;SDS011;9459;50.254;19.014;2023-08-30T09:31:50;5.20;;;3.60;;
18659;SDS011;9459;50.254;19.014;2023-08-30T09:34:22;3.40;;;2.75;;
18659;SDS011;9459;50.254;19.014;2023-08-30T09:36:53;3.55;;;2.55;;
18659;SDS011;9459;50.254;19.014;2023-08-30T09:39:22;2.00;;;1.80;;
18659;SDS011;9459;50.254;19.014;2023-08-30T09:41:53;2.70;;;2.35;;
18659;SDS011;9459;50.254;19.014;2023-08-30T09:46:52;8.48;;;7.15;;
18659;SDS011;9459;50.254;19.014;2023-08-30T09:49:21;7.90;;;7.10;;
18659;SDS011;9459;50.254;19.014;2023-08-30T09:51:52;6.63;;;5.85;;
18659;SDS011;9459;50.254;19.014;2023-08-30T09:54:22;7.15;;;5.55;;
18659;SDS011;9459;50.254;19.014;2023-08-30T09:56:54;8.23;;;6.10;;
18659;SDS011;9459;50.254;19.014;2023-08-30T09:59:25;6.90;;;5.80;;
18659;SDS011;9459;50.254;19.014;2023-08-30T10:01:54;5.07;;;4.45;;
18659;SDS011;9459;50.254;19.014;2023-08-30T10:04:23;6.50;;;3.70;;
18659;SDS011;9459;50.254;19.014;2023-08-30T10:06:54;6.60;;;4.00;;
18659;SDS011;9459;50.254;19.014;2023-08-30T10:09:24;5.40;;;4.70;;
18659;SDS011;9459;50.254;19.014;2023-08-30T10:11:53;6.15;;;5.55;;
18659;SDS011;9459;50.254;19.014;2023-08-30T10:14:21;6.43;;;4.60;;
18659;SDS011;9459;50.254;19.014;2023-08-30T10:16:51;8.07;;;6.13;;
18659;SDS011;9459;50.254;19.014;2023-08-30T10:19:21;5.15;;;4.40;;
18659;SDS011;9459;50.254;19.014;2023-08-30T10:21:53;5.13;;;3.65;;
18659;SDS011;9459;50.254;19.014;2023-08-30T10:24:28;3.47;;;2.60;;
18659;SDS011;9459;50.254;19.014;2023-08-30T10:27:10;4.65;;;3.45;;
18659;SDS011;9459;50.254;19.014;2023-08-30T10:29:40;5.00;;;4.15;;
18659;SDS011;9459;50.254;19.014;2023-08-30T10:32:09;5.15;;;4.38;;
18659;SDS011;9459;50.254;19.014;2023-08-30T10:34:37;6.53;;;4.80;;
18659;SDS011;9459;50.254;19.014;2023-08-30T10:37:09;4.93;;;4.43;;
18659;SDS011;9459;50.254;19.014;2023-08-30T10:39:38;6.68;;;5.38;;
18659;SDS011;9459;50.254;19.014;2023-08-30T10:42:08;5.25;;;4.00;;
18659;SDS011;9459;50.254;19.014;2023-08-30T10:44:46;6.03;;;3.92;;
18659;SDS011;9459;50.254;19.014;2023-08-30T10:47:36;3.92;;;2.90;;
18659;SDS011;9459;50.254;19.014;2023-08-30T10:50:07;4.00;;;2.50;;
18659;SDS011;9459;50.254;19.014;2023-08-30T10:52:38;3.67;;;2.30;;
18659;SDS011;9459;50.254;19.014;2023-08-30T10:55:06;3.13;;;1.95;;
18659;SDS011;9459;50.254;19.014;2023-08-30T10:57:36;3.35;;;2.53;;
18659;SDS011;9459;50.254;19.014;2023-08-30T11:00:08;3.58;;;2.35;;
18659;SDS011;9459;50.254;19.014;2023-08-30T11:02:37;3.33;;;2.20;;
18659;SDS011;9459;50.254;19.014;2023-08-30T11:05:08;2.90;;;1.67;;
18659;SDS011;9459;50.254;19.014;2023-08-30T11:07:38;3.73;;;1.60;;
18659;SDS011;9459;50.254;19.014;2023-08-30T11:10:06;6.15;;;1.92;;
18659;SDS011;9459;50.254;19.014;2023-08-30T11:12:36;7.68;;;2.83;;
18659;SDS011;9459;50.254;19.014;2023-08-30T11:15:06;5.53;;;3.30;;
18659;SDS011;9459;50.254;19.014;2023-08-30T11:17:36;4.88;;;3.00;;
18659;SDS011;9459;50.254;19.014;2023-08-30T11:20:05;5.05;;;3.08;;
18659;SDS011;9459;50.254;19.014;2023-08-30T11:22:35;4.47;;;2.80;;
18659;SDS011;9459;50.254;19.014;2023-08-30T11:25:07;5.60;;;2.55;;
18659;SDS011;9459;50.254;19.014;2023-08-30T11:27:36;6.80;;;2.95;;
18659;SDS011;9459;50.254;19.014;2023-08-30T11:30:05;2.67;;;1.90;;
18659;SDS011;9459;50.254;19.014;2023-08-30T11:32:36;3.42;;;2.33;;
18659;SDS011;9459;50.254;19.014;2023-08-30T11:35:05;6.30;;;3.00;;
18659;SDS011;9459;50.254;19.014;2023-08-30T11:37:35;4.65;;;3.40;;
18659;SDS011;9459;50.254;19.014;2023-08-30T11:40:03;4.55;;;3.17;;
18659;SDS011;9459;50.254;19.014;2023-08-30T11:42:35;4.15;;;3.35;;
18659;SDS011;9459;50.254;19.014;2023-08-30T11:45:04;4.93;;;3.15;;
18659;SDS011;9459;50.254;19.014;2023-08-30T11:47:33;4.50;;;3.00;;
18659;SDS011;9459;50.254;19.014;2023-08-30T11:50:02;3.75;;;2.92;;
18659;SDS011;9459;50.254;19.014;2023-08-30T11:52:33;3.33;;;2.63;;
18659;SDS011;9459;50.254;19.014;2023-08-30T11:55:03;3.83;;;1.90;;
18659;SDS011;9459;50.254;19.014;2023-08-30T11:57:34;3.83;;;2.42;;
18659;SDS011;9459;50.254;19.014;2023-08-30T12:00:08;2.70;;;2.28;;
18659;SDS011;9459;50.254;19.014;2023-08-30T12:02:37;3.08;;;1.75;;
18659;SDS011;9459;50.254;19.014;2023-08-30T12:05:09;3.75;;;2.63;;
18659;SDS011;9459;50.254;19.014;2023-08-30T12:07:39;7.07;;;3.60;;
18659;SDS011;9459;50.254;19.014;2023-08-30T12:10:08;4.18;;;3.08;;
18659;SDS011;9459;50.254;19.014;2023-08-30T12:12:43;4.05;;;3.15;;
18659;SDS011;9459;50.254;19.014;2023-08-30T12:15:13;4.05;;;2.63;;
18659;SDS011;9459;50.254;19.014;2023-08-30T12:17:42;2.90;;;2.42;;
18659;SDS011;9459;50.254;19.014;2023-08-30T12:20:14;3.42;;;1.80;;
18659;SDS011;9459;50.254;19.014;2023-08-30T12:22:44;2.90;;;1.80;;
18659;SDS011;9459;50.254;19.014;2023-08-30T12:25:17;2.83;;;1.60;;
18659;SDS011;9459;50.254;19.014;2023-08-30T12:27:48;3.10;;;2.10;;
18659;SDS011;9459;50.254;19.014;2023-08-30T12:30:17;4.75;;;2.35;;
18659;SDS011;9459;50.254;19.014;2023-08-30T12:32:46;4.07;;;2.70;;
18659;SDS011;9459;50.254;19.014;2023-08-30T12:35:15;4.65;;;2.90;;
18659;SDS011;9459;50.254;19.014;2023-08-30T12:37:44;3.15;;;2.47;;
18659;SDS011;9459;50.254;19.014;2023-08-30T12:40:12;3.25;;;2.08;;
18659;SDS011;9459;50.254;19.014;2023-08-30T12:42:41;4.22;;;2.05;;
18659;SDS011;9459;50.254;19.014;2023-08-30T12:45:11;4.90;;;2.47;;
18659;SDS011;9459;50.254;19.014;2023-08-30T12:47:39;4.20;;;2.38;;
18659;SDS011;9459;50.254;19.014;2023-08-30T12:50:08;3.42;;;2.53;;
18659;SDS011;9459;50.254;19.014;2023-08-30T12:52:37;5.03;;;2.75;;
18659;SDS011;9459;50.254;19.014;2023-08-30T12:55:05;4.00;;;3.00;;
18659;SDS011;9459;50.254;19.014;2023-08-30T12:57:36;2.90;;;2.60;;
18659;SDS011;9459;50.254;19.014;2023-08-30T13:00:05;4.15;;;3.20;;
18659;SDS011;9459;50.254;19.014;2023-08-30T13:02:36;3.10;;;2.67;;
18659;SDS011;9459;50.254;19.014;2023-08-30T13:05:05;3.00;;;2.70;;
18659;SDS011;9459;50.254;19.014;2023-08-30T13:07:33;3.67;;;3.08;;
18659;SDS011;9459;50.254;19.014;2023-08-30T13:10:02;4.05;;;3.58;;
18659;SDS011;9459;50.254;19.014;2023-08-30T13:12:31;3.30;;;2.50;;
18659;SDS011;9459;50.254;19.014;2023-08-30T13:14:59;4.35;;;3.20;;
18659;SDS011;9459;50.254;19.014;2023-08-30T13:17:28;4.63;;;3.28;;
18659;SDS011;9459;50.254;19.014;2023-08-30T13:19:58;5.85;;;3.92;;
18659;SDS011;9459;50.254;19.014;2023-08-30T13:22:27;4.97;;;4.43;;
18659;SDS011;9459;50.254;19.014;2023-08-30T13:24:55;5.00;;;4.45;;
18659;SDS011;9459;50.254;19.014;2023-08-30T13:27:26;7.85;;;3.95;;
18659;SDS011;9459;50.254;19.014;2023-08-30T13:29:54;5.47;;;4.65;;
18659;SDS011;9459;50.254;19.014;2023-08-30T13:32:23;3.78;;;3.20;;
18659;SDS011;9459;50.254;19.014;2023-08-30T13:34:51;6.25;;;4.97;;
18659;SDS011;9459;50.254;19.014;2023-08-30T13:37:21;4.63;;;3.58;;
18659;SDS011;9459;50.254;19.014;2023-08-30T13:39:51;5.38;;;3.45;;
18659;SDS011;9459;50.254;19.014;2023-08-30T13:42:20;4.13;;;2.97;;
18659;SDS011;9459;50.254;19.014;2023-08-30T13:44:52;3.17;;;2.85;;
18659;SDS011;9459;50.254;19.014;2023-08-30T13:47:20;5.97;;;3.22;;
18659;SDS011;9459;50.254;19.014;2023-08-30T13:49:48;3.40;;;3.10;;
18659;SDS011;9459;50.254;19.014;2023-08-30T13:52:17;5.10;;;3.05;;
18659;SDS011;9459;50.254;19.014;2023-08-30T13:54:47;4.05;;;3.65;;
18659;SDS011;9459;50.254;19.014;2023-08-30T13:57:17;3.80;;;3.40;;
18659;SDS011;9459;50.254;19.014;2023-08-30T13:59:45;3.63;;;3.22;;
18659;SDS011;9459;50.254;19.014;2023-08-30T14:02:14;3.30;;;3.00;;
18659;SDS011;9459;50.254;19.014;2023-08-30T14:04:42;4.18;;;3.78;;
18659;SDS011;9459;50.254;19.014;2023-08-30T14:07:11;3.38;;;2.75;;
18659;SDS011;9459;50.254;19.014;2023-08-30T14:09:39;5.80;;;3.25;;
18659;SDS011;9459;50.254;19.014;2023-08-30T14:12:10;7.05;;;2.88;;
18659;SDS011;9459;50.254;19.014;2023-08-30T14:14:38;2.70;;;2.50;;
18659;SDS011;9459;50.254;19.014;2023-08-30T14:17:07;3.22;;;2.92;;
18659;SDS011;9459;50.254;19.014;2023-08-30T14:19:35;3.53;;;3.03;;
18659;SDS011;9459;50.254;19.014;2023-08-30T14:22:04;4.40;;;3.10;;
18659;SDS011;9459;50.254;19.014;2023-08-30T14:24:32;3.97;;;3.58;;
18659;SDS011;9459;50.254;19.014;2023-08-30T14:27:19;3.28;;;2.97;;
18659;SDS011;9459;50.254;19.014;2023-08-30T14:29:47;4.20;;;3.63;;
18659;SDS011;9459;50.254;19.014;2023-08-30T14:32:16;4.68;;;3.85;;
18659;SDS011;9459;50.254;19.014;2023-08-30T14:34:44;5.30;;;3.95;;
18659;SDS011;9459;50.254;19.014;2023-08-30T14:37:13;4.90;;;4.40;;
18659;SDS011;9459;50.254;19.014;2023-08-30T14:39:41;5.97;;;4.10;;
18659;SDS011;9459;50.254;19.014;2023-08-30T14:42:10;4.10;;;3.70;;
18659;SDS011;9459;50.254;19.014;2023-08-30T14:44:40;3.50;;;3.20;;
18659;SDS011;9459;50.254;19.014;2023-08-30T14:47:08;3.45;;;2.97;;
18659;SDS011;9459;50.254;19.014;2023-08-30T14:49:37;3.63;;;3.20;;
18659;SDS011;9459;50.254;19.014;2023-08-30T14:52:05;3.17;;;2.88;;
18659;SDS011;9459;50.254;19.014;2023-08-30T14:54:33;3.60;;;3.28;;
18659;SDS011;9459;50.254;19.014;2023-08-30T14:57:02;4.22;;;3.47;;